Gramma Lee T. Moran — WDA8564 — position and weather

sailwx.info

Track history (hours):
 
Tides and Currents Weather Stations Pressure Air Temp Water Temp Dewpoint Dewpoint Depression Visibility Wind Speed Wind Dir Waves Ship Positions

Gramma Lee T. Moran

Owner: Moran Towing Corporation, New Canaan, CT. More information available from US FCC via Universal Licensing System and Coast Guard Vessel Documentation Center.

Last reported at 2017-Dec-17 04:31 UTC. Time now 2017-Dec-17 04:32 UTC.
Position N 39°58' W 075°07'.

Length 30 m; draft 5 m.

Type: Tug. MMSI: 336855710.

Date/timePositionNaut miles runAvg speedWind from/ knotsBaromVisibWave heightAir tempDewpointWater temp
2017-Dec-17 04:31N 39°58' W 075°07'0 0.8
2017-Dec-17 04:00N 39°58' W 075°07'1 2.1
2017-Dec-17 03:30N 39°57' W 075°08'2 4.5
2017-Dec-17 03:00N 39°59' W 075°06'0 1.0
2017-Dec-17 02:30N 39°58' W 075°06'0 0.9
2017-Dec-17 02:00N 39°59' W 075°06'4 8.2
2017-Dec-17 01:30N 39°55' W 075°08'3 5.5
2017-Dec-17 01:00N 39°53' W 075°11'0 0.0
2017-Dec-17 00:30N 39°53' W 075°11'0 0.0
2017-Dec-17 00:00N 39°53' W 075°11'0 0.0
2017-Dec-16 23:30N 39°53' W 075°11'0 0.0
2017-Dec-16 23:00N 39°53' W 075°11'0 0.0
2017-Dec-16 22:30N 39°53' W 075°11'0 0.0
2017-Dec-16 22:00N 39°53' W 075°11'0 0.0
2017-Dec-16 21:30N 39°53' W 075°11'0 0.0
2017-Dec-16 21:00N 39°53' W 075°11'0 0.0
2017-Dec-16 20:30N 39°53' W 075°11'0 0.0
2017-Dec-16 20:00N 39°53' W 075°11'0 0.0
2017-Dec-16 19:31N 39°53' W 075°11'0 0.0
2017-Dec-16 19:00N 39°53' W 075°11'0 0.0
2017-Dec-16 18:31N 39°53' W 075°11'0 0.0
2017-Dec-16 18:01N 39°53' W 075°11'0 0.0
2017-Dec-16 17:30N 39°53' W 075°11'2 4.0
2017-Dec-16 17:00N 39°52' W 075°13'0 0.1
2017-Dec-16 16:31N 39°52' W 075°13'0 0.0
2017-Dec-16 16:00N 39°52' W 075°13'2 4.1
2017-Dec-16 15:31N 39°53' W 075°11'0 0.0
2017-Dec-16 15:01N 39°53' W 075°11'0 0.0
2017-Dec-16 14:30N 39°53' W 075°11'0 0.0
2017-Dec-16 14:00N 39°53' W 075°11'1 2.4
2017-Dec-16 13:29N 39°54' W 075°12'0 0.3
2017-Dec-16 12:58N 39°54' W 075°12'1 2.2
2017-Dec-16 12:29N 39°53' W 075°12'1 2.5
2017-Dec-16 11:59N 39°53' W 075°11'0 0.0
2017-Dec-16 11:28N 39°53' W 075°11'0 0.0
2017-Dec-16 10:57N 39°53' W 075°11'0 0.0
2017-Dec-16 10:27N 39°53' W 075°11'0 0.0
2017-Dec-16 10:00N 39°53' W 075°11'510.0
2017-Dec-16 09:28N 39°58' W 075°07'1 1.4
2017-Dec-16 08:59N 39°58' W 075°07'0 0.1
2017-Dec-16 08:27N 39°58' W 075°07'0 0.3
2017-Dec-16 08:00N 39°58' W 075°07'2 4.2
2017-Dec-16 07:27N 39°56' W 075°08'4 7.8
2017-Dec-16 06:59N 39°53' W 075°11'0 0.6
2017-Dec-16 06:31N 39°53' W 075°11'0 0.0
2017-Dec-16 05:58N 39°53' W 075°11'0 0.0
2017-Dec-16 05:30N 39°53' W 075°11'0 0.0
2017-Dec-16 04:59N 39°53' W 075°11'0 0.0
2017-Dec-16 04:30N 39°53' W 075°11'0 0.0
2017-Dec-16 04:01N 39°53' W 075°11'0 0.0
2017-Dec-16 03:31N 39°53' W 075°11'0 0.0
2017-Dec-16 03:00N 39°53' W 075°11'0 0.0
2017-Dec-16 02:30N 39°53' W 075°11'0 0.0
2017-Dec-16 02:00N 39°53' W 075°11'0 0.0
2017-Dec-16 01:30N 39°53' W 075°11'0 0.0
2017-Dec-16 01:00N 39°53' W 075°11'0 0.0
2017-Dec-16 00:31N 39°53' W 075°11'0 0.0
2017-Dec-16 00:01N 39°53' W 075°11'0 0.0
2017-Dec-15 23:30N 39°53' W 075°11'0 0.0
2017-Dec-15 23:00N 39°53' W 075°11'0 0.0
2017-Dec-15 22:30N 39°53' W 075°11'0 0.0
2017-Dec-15 22:01N 39°53' W 075°11'0 0.0
2017-Dec-15 21:30N 39°53' W 075°11'0 0.0
2017-Dec-15 21:00N 39°53' W 075°11'0 0.0
2017-Dec-15 20:31N 39°53' W 075°11'0 0.0
2017-Dec-15 20:00N 39°53' W 075°11'0 0.0
2017-Dec-15 19:30N 39°53' W 075°11'0 0.0
2017-Dec-15 19:00N 39°53' W 075°11'0 0.2
2017-Dec-15 18:30N 39°53' W 075°11'4 7.6
2017-Dec-15 18:00N 39°56' W 075°08'5 9.6
2017-Dec-15 17:30N 39°60' W 075°04'510.0
2017-Dec-15 17:00N 40°03' W 074°59'5 9.9
2017-Dec-15 16:30N 40°05' W 074°53'4 7.3
2017-Dec-15 16:00N 40°08' W 074°50'3 6.1
2017-Dec-15 15:30N 40°08' W 074°46'0 0.7
2017-Dec-15 15:00N 40°08' W 074°45'2 3.6
2017-Dec-15 14:30N 40°07' W 074°47'1 1.8
2017-Dec-15 14:00N 40°08' W 074°46'1 1.4
2017-Dec-15 13:18N 40°08' W 074°45'0 0.0
2017-Dec-15 13:00N 40°08' W 074°45'0 0.0
2017-Dec-15 12:18N 40°08' W 074°45'0 0.0
2017-Dec-15 11:35N 40°08' W 074°45'0 0.0
2017-Dec-15 11:30N 40°08' W 074°45'0 0.0
2017-Dec-15 11:00N 40°08' W 074°45'0 0.0
2017-Dec-15 10:30N 40°08' W 074°45'0 0.0
2017-Dec-15 10:00N 40°08' W 074°45'0 0.0
2017-Dec-15 09:30N 40°08' W 074°45'0 0.0
2017-Dec-15 09:01N 40°08' W 074°45'0 0.0
2017-Dec-15 08:31N 40°08' W 074°45'0 0.0
2017-Dec-15 08:00N 40°08' W 074°45'0 0.0
2017-Dec-15 07:31N 40°08' W 074°45'0 0.0
2017-Dec-15 07:00N 40°08' W 074°45'3 6.6
2017-Dec-15 06:30N 40°08' W 074°50'5 9.1
2017-Dec-15 06:00N 40°04' W 074°54'510.0
2017-Dec-15 05:30N 40°02' W 074°60'5 9.8
2017-Dec-15 05:00N 39°59' W 075°04'4 8.9
2017-Dec-15 04:30N 39°55' W 075°08'1 2.5
2017-Dec-15 04:00N 39°54' W 075°08'2 1.5
2017-Dec-15 02:30N 39°53' W 075°11'2 1.5
2017-Dec-15 01:00N 39°54' W 075°08'0 0.0
2017-Dec-15 00:30N 39°54' W 075°08'2 0.4
2017-Dec-14 18:30N 39°53' W 075°11'0 0.0
2017-Dec-14 18:00N 39°53' W 075°11'0 0.5
2017-Dec-14 17:31N 39°53' W 075°11'0 0.0
2017-Dec-14 17:00N 39°53' W 075°11'1 1.3
2017-Dec-14 16:30N 39°53' W 075°10'2 3.9
2017-Dec-14 16:00N 39°54' W 075°08'2 2.3
2017-Dec-14 15:00N 39°53' W 075°11'0 0.3
2017-Dec-14 14:30N 39°53' W 075°11'0 0.0
2017-Dec-14 14:00N 39°53' W 075°11'1 2.0
2017-Dec-14 13:30N 39°53' W 075°09'2 3.1
2017-Dec-14 13:00N 39°54' W 075°08'0 0.2
2017-Dec-14 12:31N 39°54' W 075°08'2 4.5
2017-Dec-14 12:00N 39°53' W 075°11'0 0.2
2017-Dec-14 11:30N 39°53' W 075°11'0 0.0
2017-Dec-14 11:00N 39°53' W 075°11'0 0.0
2017-Dec-14 10:30N 39°53' W 075°11'0 0.0
2017-Dec-14 10:00N 39°53' W 075°11'0 0.0
2017-Dec-14 09:30N 39°53' W 075°11'0 0.0
2017-Dec-14 09:01N 39°53' W 075°11'0 0.0
2017-Dec-14 08:30N 39°53' W 075°11'0 0.0
2017-Dec-14 08:01N 39°53' W 075°11'0 0.0
2017-Dec-14 07:30N 39°53' W 075°11'0 0.0
2017-Dec-14 07:00N 39°53' W 075°11'0 0.0
2017-Dec-14 06:30N 39°53' W 075°11'0 0.0
2017-Dec-14 06:01N 39°53' W 075°11'0 0.0
2017-Dec-14 05:30N 39°53' W 075°11'0 0.0
2017-Dec-14 05:00N 39°53' W 075°11'0 0.0
2017-Dec-14 04:30N 39°53' W 075°11'0 0.0
2017-Dec-14 04:00N 39°53' W 075°11'0 0.0
2017-Dec-14 03:30N 39°53' W 075°11'0 0.0
2017-Dec-14 03:01N 39°53' W 075°11'2 4.4
2017-Dec-14 02:30N 39°54' W 075°08'0 0.2
2017-Dec-14 02:00N 39°54' W 075°08'2 3.7
2017-Dec-14 01:30N 39°53' W 075°10'3 5.2
2017-Dec-14 01:01N 39°55' W 075°08'0 0.0
2017-Dec-14 00:30N 39°55' W 075°08'0 0.0
2017-Dec-14 00:00N 39°55' W 075°08'0 0.0
2017-Dec-13 23:30N 39°55' W 075°08'0 0.0
2017-Dec-13 23:00N 39°55' W 075°08'0 0.0
2017-Dec-13 22:31N 39°55' W 075°08'0 0.0
2017-Dec-13 22:01N 39°55' W 075°08'0 0.0
2017-Dec-13 21:30N 39°55' W 075°08'0 0.0
2017-Dec-13 21:00N 39°55' W 075°08'0 0.0
2017-Dec-13 20:30N 39°55' W 075°08'0 0.0
2017-Dec-13 20:00N 39°55' W 075°08'0 0.0
2017-Dec-13 19:30N 39°55' W 075°08'1 2.6
2017-Dec-13 19:00N 39°54' W 075°08'2 4.1
2017-Dec-13 18:30N 39°53' W 075°11'1 1.8
2017-Dec-13 18:00N 39°53' W 075°12'1 1.2
2017-Dec-13 17:30N 39°53' W 075°11'1 1.3
2017-Dec-13 17:00N 39°53' W 075°11'0 0.0
2017-Dec-13 16:30N 39°53' W 075°11'0 0.0
2017-Dec-13 16:01N 39°53' W 075°11'0 0.0
2017-Dec-13 15:30N 39°53' W 075°11'0 0.0
2017-Dec-13 15:00N 39°53' W 075°11'0 0.0
2017-Dec-13 14:30N 39°53' W 075°11'0 0.0
2017-Dec-13 14:00N 39°53' W 075°11'0 0.0
2017-Dec-13 13:31N 39°53' W 075°11'0 0.0
2017-Dec-13 13:00N 39°53' W 075°11'0 0.0
2017-Dec-13 12:30N 39°53' W 075°11'0 0.0
2017-Dec-13 12:00N 39°53' W 075°11'0 0.0
2017-Dec-13 11:30N 39°53' W 075°11'0 0.0
2017-Dec-13 11:00N 39°53' W 075°11'0 0.0
2017-Dec-13 10:31N 39°53' W 075°11'0 0.0
2017-Dec-13 10:00N 39°53' W 075°11'0 0.0
2017-Dec-13 09:30N 39°53' W 075°11'0 0.0
2017-Dec-13 09:00N 39°53' W 075°11'0 0.0
2017-Dec-13 08:30N 39°53' W 075°11'0 0.0
2017-Dec-13 08:00N 39°53' W 075°11'0 0.0
2017-Dec-13 07:31N 39°53' W 075°11'0 0.0
2017-Dec-13 07:00N 39°53' W 075°11'0 0.0
2017-Dec-13 06:30N 39°53' W 075°11'0 0.0
2017-Dec-13 06:01N 39°53' W 075°11'0 0.0
2017-Dec-13 05:31N 39°53' W 075°11'0 0.0
2017-Dec-13 05:00N 39°53' W 075°11'0 0.0
2017-Dec-13 04:30N 39°53' W 075°11'0 0.0
2017-Dec-13 04:01N 39°53' W 075°11'0 0.5
2017-Dec-13 03:30N 39°53' W 075°11'0 0.1
2017-Dec-13 03:01N 39°53' W 075°11'1 2.3
2017-Dec-13 02:31N 39°53' W 075°12'1 1.3
2017-Dec-13 02:01N 39°52' W 075°13'0 0.0
2017-Dec-13 01:30N 39°52' W 075°13'2 4.1
2017-Dec-13 01:00N 39°53' W 075°11'0 0.0
2017-Dec-13 00:30N 39°53' W 075°11'0 0.0
2017-Dec-13 00:00N 39°53' W 075°11'0 0.0
2017-Dec-12 23:31N 39°53' W 075°11'0 0.0
2017-Dec-12 23:00N 39°53' W 075°11'0 0.0
2017-Dec-12 22:30N 39°53' W 075°11'0 0.0
2017-Dec-12 22:00N 39°53' W 075°11'0 0.0
2017-Dec-12 21:30N 39°53' W 075°11'0 0.0
2017-Dec-12 21:00N 39°53' W 075°11'0 0.0
2017-Dec-12 20:31N 39°53' W 075°11'0 0.0
2017-Dec-12 20:00N 39°53' W 075°11'0 0.0
2017-Dec-12 19:30N 39°53' W 075°11'0 0.0
2017-Dec-12 19:00N 39°53' W 075°11'0 0.0
2017-Dec-12 18:30N 39°53' W 075°11'0 0.0
2017-Dec-12 18:00N 39°53' W 075°11'0 0.0
2017-Dec-12 17:30N 39°53' W 075°11'0 0.0
2017-Dec-12 17:00N 39°53' W 075°11'0 0.0
2017-Dec-12 16:25N 39°53' W 075°11'0 0.0
2017-Dec-12 16:00N 39°53' W 075°11'0 0.0
2017-Dec-12 15:25N 39°53' W 075°11'0 0.0
2017-Dec-12 15:00N 39°53' W 075°11'0 0.0
2017-Dec-12 14:28N 39°53' W 075°11'0 0.0
2017-Dec-12 14:00N 39°53' W 075°11'0 0.0
2017-Dec-12 13:30N 39°53' W 075°11'2 4.1
2017-Dec-12 13:00N 39°52' W 075°13'0 0.1
2017-Dec-12 12:30N 39°52' W 075°13'0 0.0
2017-Dec-12 11:59N 39°52' W 075°13'0 0.2
2017-Dec-12 11:28N 39°52' W 075°13'1 2.6
2017-Dec-12 10:56N 39°51' W 075°14'3 5.9
2017-Dec-12 10:29N 39°53' W 075°12'1 1.5
2017-Dec-12 10:00N 39°53' W 075°11'0 0.0
2017-Dec-12 09:27N 39°53' W 075°11'0 0.0
2017-Dec-12 08:55N 39°53' W 075°11'0 0.0
2017-Dec-12 08:27N 39°53' W 075°11'0 0.0
2017-Dec-12 07:55N 39°53' W 075°11'0 0.0
2017-Dec-12 07:30N 39°53' W 075°11'0 0.0
2017-Dec-12 07:00N 39°53' W 075°11'0 0.0
2017-Dec-12 06:30N 39°53' W 075°11'0 0.0
2017-Dec-12 05:59N 39°53' W 075°11'0 0.0
2017-Dec-12 05:30N 39°53' W 075°11'0 0.0
2017-Dec-12 04:57N 39°53' W 075°11'0 0.0
2017-Dec-12 04:27N 39°53' W 075°11'0 0.0
2017-Dec-12 04:00N 39°53' W 075°11'0 0.0
2017-Dec-12 03:30N 39°53' W 075°11'0 0.0
2017-Dec-12 03:00N 39°53' W 075°11'0 0.0
2017-Dec-12 02:30N 39°53' W 075°11'0 0.0
2017-Dec-12 02:01N 39°53' W 075°11'0 0.0
2017-Dec-12 01:31N 39°53' W 075°11'0 0.0
2017-Dec-12 01:00N 39°53' W 075°11'0 0.0
2017-Dec-12 00:30N 39°53' W 075°11'0 0.0
2017-Dec-12 00:00N 39°53' W 075°11'0 0.0
2017-Dec-11 23:30N 39°53' W 075°11'0 0.0
2017-Dec-11 23:00N 39°53' W 075°11'0 0.0
2017-Dec-11 22:30N 39°53' W 075°11'0 0.0
2017-Dec-11 22:00N 39°53' W 075°11'0 0.0
2017-Dec-11 21:30N 39°53' W 075°11'0 0.0
2017-Dec-11 21:00N 39°53' W 075°11'0 0.0
2017-Dec-11 20:30N 39°53' W 075°11'0 0.0
2017-Dec-11 20:00N 39°53' W 075°11'0 0.0
2017-Dec-11 19:30N 39°53' W 075°11'0 0.0
2017-Dec-11 19:00N 39°53' W 075°11'0 0.0
2017-Dec-11 18:31N 39°53' W 075°11'1 1.6
2017-Dec-11 18:00N 39°54' W 075°12'0 0.2
2017-Dec-11 17:30N 39°53' W 075°12'0 0.0
2017-Dec-11 17:00N 39°53' W 075°12'0 0.0
2017-Dec-11 16:30N 39°53' W 075°12'0 0.0
2017-Dec-11 16:00N 39°53' W 075°12'1 1.9
2017-Dec-11 15:30N 39°53' W 075°11'0 0.3
2017-Dec-11 15:00N 39°53' W 075°10'0 0.6
2017-Dec-11 14:30N 39°53' W 075°11'0 0.0
2017-Dec-11 14:00N 39°53' W 075°11'0 0.0
2017-Dec-11 13:31N 39°53' W 075°11'0 0.0
2017-Dec-11 13:00N 39°53' W 075°11'0 0.0
2017-Dec-11 12:30N 39°53' W 075°11'0 0.0
2017-Dec-11 12:00N 39°53' W 075°11'2 4.3
2017-Dec-11 11:30N 39°54' W 075°08'1 1.2
2017-Dec-11 11:00N 39°53' W 075°08'0 0.4
2017-Dec-11 10:30N 39°54' W 075°08'2 3.9
2017-Dec-11 10:00N 39°53' W 075°11'0 0.0
2017-Dec-11 09:30N 39°53' W 075°11'0 0.0
2017-Dec-11 09:00N 39°53' W 075°11'0 0.0
2017-Dec-11 08:30N 39°53' W 075°11'0 0.0
2017-Dec-11 08:01N 39°53' W 075°11'0 0.0
2017-Dec-11 07:30N 39°53' W 075°11'0 0.0
2017-Dec-11 07:00N 39°53' W 075°11'0 0.0
2017-Dec-11 06:30N 39°53' W 075°11'0 0.0
2017-Dec-11 06:00N 39°53' W 075°11'0 0.0
2017-Dec-11 05:30N 39°53' W 075°11'0 0.0
2017-Dec-11 05:01N 39°53' W 075°11'0 0.0
2017-Dec-11 04:30N 39°53' W 075°11'0 0.0
2017-Dec-11 04:00N 39°53' W 075°11'0 0.0
2017-Dec-11 03:30N 39°53' W 075°11'0 0.0
2017-Dec-11 03:00N 39°53' W 075°11'0 0.0
2017-Dec-11 02:30N 39°53' W 075°11'0 0.0
2017-Dec-11 02:00N 39°53' W 075°11'0 0.0
2017-Dec-11 01:30N 39°53' W 075°11'0 0.0
2017-Dec-11 01:00N 39°53' W 075°11'0 0.0
2017-Dec-11 00:30N 39°53' W 075°11'0 0.0
2017-Dec-11 00:00N 39°53' W 075°11'0 0.0
2017-Dec-10 23:30N 39°53' W 075°11'0 0.0
2017-Dec-10 23:00N 39°53' W 075°11'0 0.0
2017-Dec-10 22:30N 39°53' W 075°11'0 0.0
2017-Dec-10 22:00N 39°53' W 075°11'0 0.0
2017-Dec-10 21:30N 39°53' W 075°11'0 0.0
2017-Dec-10 21:01N 39°53' W 075°11'0 0.0
2017-Dec-10 20:30N 39°53' W 075°11'0 0.0
2017-Dec-10 20:00N 39°53' W 075°11'0 0.0
2017-Dec-10 19:30N 39°53' W 075°11'0 0.0
2017-Dec-10 19:00N 39°53' W 075°11'0 0.0
2017-Dec-10 18:30N 39°53' W 075°11'2 3.1
2017-Dec-10 18:00N 39°53' W 075°09'2 4.1
2017-Dec-10 17:30N 39°55' W 075°08'0 0.1
2017-Dec-10 17:00N 39°55' W 075°08'2 4.2
2017-Dec-10 16:30N 39°53' W 075°09'1 1.3
2017-Dec-10 16:00N 39°53' W 075°09'0 0.4
2017-Dec-10 15:30N 39°53' W 075°09'1 1.9
2017-Dec-10 15:01N 39°53' W 075°11'0 0.4
2017-Dec-10 14:30N 39°53' W 075°11'0 0.0
2017-Dec-10 14:00N 39°53' W 075°11'0 0.0
2017-Dec-10 13:30N 39°53' W 075°11'0 0.0
2017-Dec-10 13:00N 39°53' W 075°11'0 0.0
2017-Dec-10 12:30N 39°53' W 075°11'0 0.0
2017-Dec-10 12:00N 39°53' W 075°11'0 0.0
2017-Dec-10 11:30N 39°53' W 075°11'0 0.0
2017-Dec-10 11:00N 39°53' W 075°11'0 0.0
2017-Dec-10 10:30N 39°53' W 075°11'0 0.0
2017-Dec-10 10:00N 39°53' W 075°11'0 0.0
2017-Dec-10 09:30N 39°53' W 075°11'0 0.0
2017-Dec-10 09:00N 39°53' W 075°11'0 0.0
2017-Dec-10 08:30N 39°53' W 075°11'0 0.0
2017-Dec-10 08:00N 39°53' W 075°11'0 0.0
2017-Dec-10 07:30N 39°53' W 075°11'0 0.0
2017-Dec-10 07:01N 39°53' W 075°11'0 0.0
2017-Dec-10 06:30N 39°53' W 075°11'0 0.0
2017-Dec-10 06:01N 39°53' W 075°11'0 0.0
2017-Dec-10 05:31N 39°53' W 075°11'0 0.0
2017-Dec-10 05:01N 39°53' W 075°11'0 0.0
2017-Dec-10 04:31N 39°53' W 075°11'0 0.0
2017-Dec-10 04:00N 39°53' W 075°11'0 0.0
2017-Dec-10 03:30N 39°53' W 075°11'0 0.0
2017-Dec-10 03:00N 39°53' W 075°11'0 0.0
2017-Dec-10 02:30N 39°53' W 075°11'0 0.0
2017-Dec-10 02:01N 39°53' W 075°11'0 0.0
2017-Dec-10 01:31N 39°53' W 075°11'0 0.0
2017-Dec-10 01:00N 39°53' W 075°11'0 0.0
2017-Dec-10 00:30N 39°53' W 075°11'0 0.0
2017-Dec-10 00:00N 39°53' W 075°11'1 1.9
2017-Dec-09 23:30N 39°53' W 075°09'4 7.9
2017-Dec-09 23:01N 39°57' W 075°08'1 1.2
2017-Dec-09 22:30N 39°56' W 075°08'0 0.0
2017-Dec-09 22:00N 39°56' W 075°08'2 4.0
2017-Dec-09 21:30N 39°54' W 075°08'2 4.7
2017-Dec-09 21:00N 39°53' W 075°11'0 0.0
2017-Dec-09 20:31N 39°53' W 075°11'0 0.0
2017-Dec-09 20:00N 39°53' W 075°11'0 0.0
2017-Dec-09 19:30N 39°53' W 075°11'0 0.0
2017-Dec-09 19:00N 39°53' W 075°11'0 0.0
2017-Dec-09 18:31N 39°53' W 075°11'0 0.0
2017-Dec-09 18:01N 39°53' W 075°11'0 0.0
2017-Dec-09 17:31N 39°53' W 075°11'0 0.0
2017-Dec-09 17:00N 39°53' W 075°11'0 0.0
2017-Dec-09 16:31N 39°53' W 075°11'0 0.0
2017-Dec-09 16:01N 39°53' W 075°11'0 0.0
2017-Dec-09 15:30N 39°53' W 075°11'0 0.0
2017-Dec-09 15:01N 39°53' W 075°11'0 0.0
2017-Dec-09 14:31N 39°53' W 075°11'0 0.0
2017-Dec-09 14:00N 39°53' W 075°11'0 0.0
2017-Dec-09 13:31N 39°53' W 075°11'0 0.0
2017-Dec-09 13:01N 39°53' W 075°11'0 0.0
2017-Dec-09 12:30N 39°53' W 075°11'0 0.0
2017-Dec-09 12:01N 39°53' W 075°11'0 0.0
2017-Dec-09 11:30N 39°53' W 075°11'0 0.0
2017-Dec-09 11:00N 39°53' W 075°11'0 0.0
2017-Dec-09 10:30N 39°53' W 075°11'0 0.0
2017-Dec-09 10:00N 39°53' W 075°11'0 0.0
2017-Dec-09 09:31N 39°53' W 075°11'0 0.7
2017-Dec-09 09:00N 39°53' W 075°10'3 5.6
2017-Dec-09 08:30N 39°55' W 075°08'3 6.4
2017-Dec-09 08:00N 39°58' W 075°06'0 0.4
2017-Dec-09 07:30N 39°58' W 075°07'0 0.0
2017-Dec-09 07:00N 39°58' W 075°07'0 0.2
2017-Dec-09 06:30N 39°58' W 075°07'1 2.9
2017-Dec-09 06:01N 39°57' W 075°08'3 6.7
2017-Dec-09 05:31N 39°54' W 075°08'0 0.0
2017-Dec-09 05:00N 39°54' W 075°08'0 0.0
2017-Dec-09 04:31N 39°54' W 075°08'0 0.0
2017-Dec-09 04:00N 39°54' W 075°08'0 0.0
2017-Dec-09 03:31N 39°54' W 075°08'0 0.0
2017-Dec-09 03:00N 39°54' W 075°08'0 0.0
2017-Dec-09 02:30N 39°54' W 075°08'0 0.0
2017-Dec-09 02:01N 39°54' W 075°08'0 0.0
2017-Dec-09 01:30N 39°54' W 075°08'0 0.0
2017-Dec-09 01:00N 39°54' W 075°08'1 1.1
2017-Dec-09 00:30N 39°54' W 075°08'0 0.1
2017-Dec-09 00:00N 39°54' W 075°08'0 0.2
2017-Dec-08 23:30N 39°54' W 075°08'3 5.0
2017-Dec-08 23:00N 39°53' W 075°11'0 0.1
2017-Dec-08 22:30N 39°53' W 075°11'0 0.0
2017-Dec-08 22:00N 39°53' W 075°11'0 0.0
2017-Dec-08 21:30N 39°53' W 075°11'0 0.0
2017-Dec-08 21:00N 39°53' W 075°11'0 0.0
2017-Dec-08 20:30N 39°53' W 075°11'0 0.0
2017-Dec-08 20:00N 39°53' W 075°11'0 0.0
2017-Dec-08 19:30N 39°53' W 075°11'0 0.0
2017-Dec-08 19:00N 39°53' W 075°11'2 4.1
2017-Dec-08 18:31N 39°52' W 075°13'0 0.0
2017-Dec-08 18:00N 39°52' W 075°13'2 4.1
2017-Dec-08 17:30N 39°53' W 075°11'0 0.0
2017-Dec-08 17:00N 39°53' W 075°11'0 0.0
2017-Dec-08 16:30N 39°53' W 075°11'0 0.0
2017-Dec-08 16:00N 39°53' W 075°11'0 0.0
2017-Dec-08 15:30N 39°53' W 075°11'0 0.0
2017-Dec-08 15:00N 39°53' W 075°11'0 0.0
2017-Dec-08 14:30N 39°53' W 075°11'0 0.0
2017-Dec-08 14:00N 39°53' W 075°11'0 0.0
2017-Dec-08 13:31N 39°53' W 075°11'0 0.0
2017-Dec-08 13:00N 39°53' W 075°11'0 0.0
2017-Dec-08 12:31N 39°53' W 075°11'0 0.0
2017-Dec-08 12:00N 39°53' W 075°11'0 0.0
2017-Dec-08 11:30N 39°53' W 075°11'0 0.0
2017-Dec-08 11:00N 39°53' W 075°11'0 0.0
2017-Dec-08 10:31N 39°53' W 075°11'0 0.0
2017-Dec-08 10:00N 39°53' W 075°11'0 0.2
2017-Dec-08 09:30N 39°53' W 075°11'2 3.8
2017-Dec-08 09:00N 39°54' W 075°08'1 1.1
2017-Dec-08 08:31N 39°54' W 075°08'0 0.0
2017-Dec-08 08:01N 39°54' W 075°08'2 4.5
2017-Dec-08 07:31N 39°53' W 075°11'0 0.0
2017-Dec-08 07:01N 39°53' W 075°11'0 0.0
2017-Dec-08 06:30N 39°53' W 075°11'0 0.0
2017-Dec-08 06:00N 39°53' W 075°11'0 0.0
2017-Dec-08 05:31N 39°53' W 075°11'0 0.0
2017-Dec-08 05:00N 39°53' W 075°11'0 0.0
2017-Dec-08 04:31N 39°53' W 075°11'0 0.0
2017-Dec-08 04:01N 39°53' W 075°11'0 0.0
2017-Dec-08 03:31N 39°53' W 075°11'0 0.0
2017-Dec-08 03:01N 39°53' W 075°11'0 0.0
2017-Dec-08 02:30N 39°53' W 075°11'0 0.0
2017-Dec-08 02:00N 39°53' W 075°11'0 0.0
2017-Dec-08 01:30N 39°53' W 075°11'0 0.0
2017-Dec-08 01:01N 39°53' W 075°11'0 0.0
2017-Dec-08 00:30N 39°53' W 075°11'0 0.0
2017-Dec-08 00:00N 39°53' W 075°11'2 3.9
2017-Dec-07 23:30N 39°54' W 075°08'0 0.8
2017-Dec-07 23:00N 39°54' W 075°08'2 3.0
2017-Dec-07 22:30N 39°53' W 075°09'2 3.6
2017-Dec-07 22:00N 39°54' W 075°08'3 5.1
2017-Dec-07 21:30N 39°53' W 075°11'0 0.0
2017-Dec-07 21:00N 39°53' W 075°11'0 0.0
2017-Dec-07 20:30N 39°53' W 075°11'0 0.0
2017-Dec-07 20:00N 39°53' W 075°11'0 0.0
2017-Dec-07 19:30N 39°53' W 075°11'0 0.0
2017-Dec-07 19:00N 39°53' W 075°11'0 0.0
2017-Dec-07 18:31N 39°53' W 075°11'0 0.0
2017-Dec-07 18:01N 39°53' W 075°11'0 0.0
2017-Dec-07 17:30N 39°53' W 075°11'0 0.0
2017-Dec-07 17:00N 39°53' W 075°11'0 0.0
2017-Dec-07 16:31N 39°53' W 075°11'0 0.0
2017-Dec-07 16:01N 39°53' W 075°11'2 3.7
2017-Dec-07 15:31N 39°52' W 075°13'0 0.4
2017-Dec-07 15:00N 39°52' W 075°13'0 0.0
2017-Dec-07 14:30N 39°52' W 075°13'0 0.3
2017-Dec-07 14:00N 39°52' W 075°13'2 4.1
2017-Dec-07 13:29N 39°53' W 075°11'0 0.0
2017-Dec-07 13:00N 39°53' W 075°11'0 0.0
2017-Dec-07 12:30N 39°53' W 075°11'0 0.0
2017-Dec-07 12:00N 39°53' W 075°11'0 0.0
2017-Dec-07 11:30N 39°53' W 075°11'0 0.0
2017-Dec-07 10:59N 39°53' W 075°11'0 0.0
2017-Dec-07 10:31N 39°53' W 075°11'0 0.0
2017-Dec-07 10:00N 39°53' W 075°11'0 0.0
2017-Dec-07 09:30N 39°53' W 075°11'0 0.0
2017-Dec-07 09:00N 39°53' W 075°11'0 0.0
2017-Dec-07 08:30N 39°53' W 075°11'0 0.0
2017-Dec-07 08:00N 39°53' W 075°11'0 0.0
2017-Dec-07 07:30N 39°53' W 075°11'0 0.0
2017-Dec-07 07:00N 39°53' W 075°11'0 0.0
2017-Dec-07 06:30N 39°53' W 075°11'1 2.8
2017-Dec-07 06:00N 39°53' W 075°09'1 1.8
2017-Dec-07 05:30N 39°54' W 075°08'0 0.1
2017-Dec-07 04:59N 39°54' W 075°08'  
Track history (hours):
 
Tides and Currents Weather Stations Pressure Air Temp Water Temp Dewpoint Dewpoint Depression Visibility Wind Speed Wind Dir Waves Ship Positions

Gramma Lee T. Moran

Owner: Moran Towing Corporation, New Canaan, CT. More information available from US FCC via Universal Licensing System and Coast Guard Vessel Documentation Center.

Last reported at 2017-Dec-17 04:31 UTC. Time now 2017-Dec-17 04:32 UTC.
Position N 39°58' W 075°07'.

Length 30 m; draft 5 m.

Type: Tug. MMSI: 336855710.

Date/timePositionNaut miles runAvg speedWind from/ knotsBaromVisibWave heightAir tempDewpointWater temp
2017-Dec-17 04:31N 39°58' W 075°07'0 0.8
2017-Dec-17 04:00N 39°58' W 075°07'1 2.1
2017-Dec-17 03:30N 39°57' W 075°08'2 4.5
2017-Dec-17 03:00N 39°59' W 075°06'0 1.0
2017-Dec-17 02:30N 39°58' W 075°06'0 0.9
2017-Dec-17 02:00N 39°59' W 075°06'4 8.2
2017-Dec-17 01:30N 39°55' W 075°08'3 5.5
2017-Dec-17 01:00N 39°53' W 075°11'0 0.0
2017-Dec-17 00:30N 39°53' W 075°11'0 0.0
2017-Dec-17 00:00N 39°53' W 075°11'0 0.0
2017-Dec-16 23:30N 39°53' W 075°11'0 0.0
2017-Dec-16 23:00N 39°53' W 075°11'0 0.0
2017-Dec-16 22:30N 39°53' W 075°11'0 0.0
2017-Dec-16 22:00N 39°53' W 075°11'0 0.0
2017-Dec-16 21:30N 39°53' W 075°11'0 0.0
2017-Dec-16 21:00N 39°53' W 075°11'0 0.0
2017-Dec-16 20:30N 39°53' W 075°11'0 0.0
2017-Dec-16 20:00N 39°53' W 075°11'0 0.0
2017-Dec-16 19:31N 39°53' W 075°11'0 0.0
2017-Dec-16 19:00N 39°53' W 075°11'0 0.0
2017-Dec-16 18:31N 39°53' W 075°11'0 0.0
2017-Dec-16 18:01N 39°53' W 075°11'0 0.0
2017-Dec-16 17:30N 39°53' W 075°11'2 4.0
2017-Dec-16 17:00N 39°52' W 075°13'0 0.1
2017-Dec-16 16:31N 39°52' W 075°13'0 0.0
2017-Dec-16 16:00N 39°52' W 075°13'2 4.1
2017-Dec-16 15:31N 39°53' W 075°11'0 0.0
2017-Dec-16 15:01N 39°53' W 075°11'0 0.0
2017-Dec-16 14:30N 39°53' W 075°11'0 0.0
2017-Dec-16 14:00N 39°53' W 075°11'1 2.4
2017-Dec-16 13:29N 39°54' W 075°12'0 0.3
2017-Dec-16 12:58N 39°54' W 075°12'1 2.2
2017-Dec-16 12:29N 39°53' W 075°12'1 2.5
2017-Dec-16 11:59N 39°53' W 075°11'0 0.0
2017-Dec-16 11:28N 39°53' W 075°11'0 0.0
2017-Dec-16 10:57N 39°53' W 075°11'0 0.0
2017-Dec-16 10:27N 39°53' W 075°11'0 0.0
2017-Dec-16 10:00N 39°53' W 075°11'510.0
2017-Dec-16 09:28N 39°58' W 075°07'1 1.4
2017-Dec-16 08:59N 39°58' W 075°07'0 0.1
2017-Dec-16 08:27N 39°58' W 075°07'0 0.3
2017-Dec-16 08:00N 39°58' W 075°07'2 4.2
2017-Dec-16 07:27N 39°56' W 075°08'4 7.8
2017-Dec-16 06:59N 39°53' W 075°11'0 0.6
2017-Dec-16 06:31N 39°53' W 075°11'0 0.0
2017-Dec-16 05:58N 39°53' W 075°11'0 0.0
2017-Dec-16 05:30N 39°53' W 075°11'0 0.0
2017-Dec-16 04:59N 39°53' W 075°11'0 0.0
2017-Dec-16 04:30N 39°53' W 075°11'0 0.0
2017-Dec-16 04:01N 39°53' W 075°11'0 0.0
2017-Dec-16 03:31N 39°53' W 075°11'0 0.0
2017-Dec-16 03:00N 39°53' W 075°11'0 0.0
2017-Dec-16 02:30N 39°53' W 075°11'0 0.0
2017-Dec-16 02:00N 39°53' W 075°11'0 0.0
2017-Dec-16 01:30N 39°53' W 075°11'0 0.0
2017-Dec-16 01:00N 39°53' W 075°11'0 0.0
2017-Dec-16 00:31N 39°53' W 075°11'0 0.0
2017-Dec-16 00:01N 39°53' W 075°11'0 0.0
2017-Dec-15 23:30N 39°53' W 075°11'0 0.0
2017-Dec-15 23:00N 39°53' W 075°11'0 0.0
2017-Dec-15 22:30N 39°53' W 075°11'0 0.0
2017-Dec-15 22:01N 39°53' W 075°11'0 0.0
2017-Dec-15 21:30N 39°53' W 075°11'0 0.0
2017-Dec-15 21:00N 39°53' W 075°11'0 0.0
2017-Dec-15 20:31N 39°53' W 075°11'0 0.0
2017-Dec-15 20:00N 39°53' W 075°11'0 0.0
2017-Dec-15 19:30N 39°53' W 075°11'0 0.0
2017-Dec-15 19:00N 39°53' W 075°11'0 0.2
2017-Dec-15 18:30N 39°53' W 075°11'4 7.6
2017-Dec-15 18:00N 39°56' W 075°08'5 9.6
2017-Dec-15 17:30N 39°60' W 075°04'510.0
2017-Dec-15 17:00N 40°03' W 074°59'5 9.9
2017-Dec-15 16:30N 40°05' W 074°53'4 7.3
2017-Dec-15 16:00N 40°08' W 074°50'3 6.1
2017-Dec-15 15:30N 40°08' W 074°46'0 0.7
2017-Dec-15 15:00N 40°08' W 074°45'2 3.6
2017-Dec-15 14:30N 40°07' W 074°47'1 1.8
2017-Dec-15 14:00N 40°08' W 074°46'1 1.4
2017-Dec-15 13:18N 40°08' W 074°45'0 0.0
2017-Dec-15 13:00N 40°08' W 074°45'0 0.0
2017-Dec-15 12:18N 40°08' W 074°45'0 0.0
2017-Dec-15 11:35N 40°08' W 074°45'0 0.0
2017-Dec-15 11:30N 40°08' W 074°45'0 0.0
2017-Dec-15 11:00N 40°08' W 074°45'0 0.0
2017-Dec-15 10:30N 40°08' W 074°45'0 0.0
2017-Dec-15 10:00N 40°08' W 074°45'0 0.0
2017-Dec-15 09:30N 40°08' W 074°45'0 0.0
2017-Dec-15 09:01N 40°08' W 074°45'0 0.0
2017-Dec-15 08:31N 40°08' W 074°45'0 0.0
2017-Dec-15 08:00N 40°08' W 074°45'0 0.0
2017-Dec-15 07:31N 40°08' W 074°45'0 0.0
2017-Dec-15 07:00N 40°08' W 074°45'3 6.6
2017-Dec-15 06:30N 40°08' W 074°50'5 9.1
2017-Dec-15 06:00N 40°04' W 074°54'510.0
2017-Dec-15 05:30N 40°02' W 074°60'5 9.8
2017-Dec-15 05:00N 39°59' W 075°04'4 8.9
2017-Dec-15 04:30N 39°55' W 075°08'1 2.5
2017-Dec-15 04:00N 39°54' W 075°08'2 1.5
2017-Dec-15 02:30N 39°53' W 075°11'2 1.5
2017-Dec-15 01:00N 39°54' W 075°08'0 0.0
2017-Dec-15 00:30N 39°54' W 075°08'2 0.4
2017-Dec-14 18:30N 39°53' W 075°11'0 0.0
2017-Dec-14 18:00N 39°53' W 075°11'0 0.5
2017-Dec-14 17:31N 39°53' W 075°11'0 0.0
2017-Dec-14 17:00N 39°53' W 075°11'1 1.3
2017-Dec-14 16:30N 39°53' W 075°10'2 3.9
2017-Dec-14 16:00N 39°54' W 075°08'2 2.3
2017-Dec-14 15:00N 39°53' W 075°11'0 0.3
2017-Dec-14 14:30N 39°53' W 075°11'0 0.0
2017-Dec-14 14:00N 39°53' W 075°11'1 2.0
2017-Dec-14 13:30N 39°53' W 075°09'2 3.1
2017-Dec-14 13:00N 39°54' W 075°08'0 0.2
2017-Dec-14 12:31N 39°54' W 075°08'2 4.5
2017-Dec-14 12:00N 39°53' W 075°11'0 0.2
2017-Dec-14 11:30N 39°53' W 075°11'0 0.0
2017-Dec-14 11:00N 39°53' W 075°11'0 0.0
2017-Dec-14 10:30N 39°53' W 075°11'0 0.0
2017-Dec-14 10:00N 39°53' W 075°11'0 0.0
2017-Dec-14 09:30N 39°53' W 075°11'0 0.0
2017-Dec-14 09:01N 39°53' W 075°11'0 0.0
2017-Dec-14 08:30N 39°53' W 075°11'0 0.0
2017-Dec-14 08:01N 39°53' W 075°11'0 0.0
2017-Dec-14 07:30N 39°53' W 075°11'0 0.0
2017-Dec-14 07:00N 39°53' W 075°11'0 0.0
2017-Dec-14 06:30N 39°53' W 075°11'0 0.0
2017-Dec-14 06:01N 39°53' W 075°11'0 0.0
2017-Dec-14 05:30N 39°53' W 075°11'0 0.0
2017-Dec-14 05:00N 39°53' W 075°11'0 0.0
2017-Dec-14 04:30N 39°53' W 075°11'0 0.0
2017-Dec-14 04:00N 39°53' W 075°11'0 0.0
2017-Dec-14 03:30N 39°53' W 075°11'0 0.0
2017-Dec-14 03:01N 39°53' W 075°11'2 4.4
2017-Dec-14 02:30N 39°54' W 075°08'0 0.2
2017-Dec-14 02:00N 39°54' W 075°08'2 3.7
2017-Dec-14 01:30N 39°53' W 075°10'3 5.2
2017-Dec-14 01:01N 39°55' W 075°08'0 0.0
2017-Dec-14 00:30N 39°55' W 075°08'0 0.0
2017-Dec-14 00:00N 39°55' W 075°08'0 0.0
2017-Dec-13 23:30N 39°55' W 075°08'0 0.0
2017-Dec-13 23:00N 39°55' W 075°08'0 0.0
2017-Dec-13 22:31N 39°55' W 075°08'0 0.0
2017-Dec-13 22:01N 39°55' W 075°08'0 0.0
2017-Dec-13 21:30N 39°55' W 075°08'0 0.0
2017-Dec-13 21:00N 39°55' W 075°08'0 0.0
2017-Dec-13 20:30N 39°55' W 075°08'0 0.0
2017-Dec-13 20:00N 39°55' W 075°08'0 0.0
2017-Dec-13 19:30N 39°55' W 075°08'1 2.6
2017-Dec-13 19:00N 39°54' W 075°08'2 4.1
2017-Dec-13 18:30N 39°53' W 075°11'1 1.8
2017-Dec-13 18:00N 39°53' W 075°12'1 1.2
2017-Dec-13 17:30N 39°53' W 075°11'1 1.3
2017-Dec-13 17:00N 39°53' W 075°11'0 0.0
2017-Dec-13 16:30N 39°53' W 075°11'0 0.0
2017-Dec-13 16:01N 39°53' W 075°11'0 0.0
2017-Dec-13 15:30N 39°53' W 075°11'0 0.0
2017-Dec-13 15:00N 39°53' W 075°11'0 0.0
2017-Dec-13 14:30N 39°53' W 075°11'0 0.0
2017-Dec-13 14:00N 39°53' W 075°11'0 0.0
2017-Dec-13 13:31N 39°53' W 075°11'0 0.0
2017-Dec-13 13:00N 39°53' W 075°11'0 0.0
2017-Dec-13 12:30N 39°53' W 075°11'0 0.0
2017-Dec-13 12:00N 39°53' W 075°11'0 0.0
2017-Dec-13 11:30N 39°53' W 075°11'0 0.0
2017-Dec-13 11:00N 39°53' W 075°11'0 0.0
2017-Dec-13 10:31N 39°53' W 075°11'0 0.0
2017-Dec-13 10:00N 39°53' W 075°11'0 0.0
2017-Dec-13 09:30N 39°53' W 075°11'0 0.0
2017-Dec-13 09:00N 39°53' W 075°11'0 0.0
2017-Dec-13 08:30N 39°53' W 075°11'0 0.0
2017-Dec-13 08:00N 39°53' W 075°11'0 0.0
2017-Dec-13 07:31N 39°53' W 075°11'0 0.0
2017-Dec-13 07:00N 39°53' W 075°11'0 0.0
2017-Dec-13 06:30N 39°53' W 075°11'0 0.0
2017-Dec-13 06:01N 39°53' W 075°11'0 0.0
2017-Dec-13 05:31N 39°53' W 075°11'0 0.0
2017-Dec-13 05:00N 39°53' W 075°11'0 0.0
2017-Dec-13 04:30N 39°53' W 075°11'0 0.0
2017-Dec-13 04:01N 39°53' W 075°11'0 0.5
2017-Dec-13 03:30N 39°53' W 075°11'0 0.1
2017-Dec-13 03:01N 39°53' W 075°11'1 2.3
2017-Dec-13 02:31N 39°53' W 075°12'1 1.3
2017-Dec-13 02:01N 39°52' W 075°13'0 0.0
2017-Dec-13 01:30N 39°52' W 075°13'2 4.1
2017-Dec-13 01:00N 39°53' W 075°11'0 0.0
2017-Dec-13 00:30N 39°53' W 075°11'0 0.0
2017-Dec-13 00:00N 39°53' W 075°11'0 0.0
2017-Dec-12 23:31N 39°53' W 075°11'0 0.0
2017-Dec-12 23:00N 39°53' W 075°11'0 0.0
2017-Dec-12 22:30N 39°53' W 075°11'0 0.0
2017-Dec-12 22:00N 39°53' W 075°11'0 0.0
2017-Dec-12 21:30N 39°53' W 075°11'0 0.0
2017-Dec-12 21:00N 39°53' W 075°11'0 0.0
2017-Dec-12 20:31N 39°53' W 075°11'0 0.0
2017-Dec-12 20:00N 39°53' W 075°11'0 0.0
2017-Dec-12 19:30N 39°53' W 075°11'0 0.0
2017-Dec-12 19:00N 39°53' W 075°11'0 0.0
2017-Dec-12 18:30N 39°53' W 075°11'0 0.0
2017-Dec-12 18:00N 39°53' W 075°11'0 0.0
2017-Dec-12 17:30N 39°53' W 075°11'0 0.0
2017-Dec-12 17:00N 39°53' W 075°11'0 0.0
2017-Dec-12 16:25N 39°53' W 075°11'0 0.0
2017-Dec-12 16:00N 39°53' W 075°11'0 0.0
2017-Dec-12 15:25N 39°53' W 075°11'0 0.0
2017-Dec-12 15:00N 39°53' W 075°11'0 0.0
2017-Dec-12 14:28N 39°53' W 075°11'0 0.0
2017-Dec-12 14:00N 39°53' W 075°11'0 0.0
2017-Dec-12 13:30N 39°53' W 075°11'2 4.1
2017-Dec-12 13:00N 39°52' W 075°13'0 0.1
2017-Dec-12 12:30N 39°52' W 075°13'0 0.0
2017-Dec-12 11:59N 39°52' W 075°13'0 0.2
2017-Dec-12 11:28N 39°52' W 075°13'1 2.6
2017-Dec-12 10:56N 39°51' W 075°14'3 5.9
2017-Dec-12 10:29N 39°53' W 075°12'1 1.5
2017-Dec-12 10:00N 39°53' W 075°11'0 0.0
2017-Dec-12 09:27N 39°53' W 075°11'0 0.0
2017-Dec-12 08:55N 39°53' W 075°11'0 0.0
2017-Dec-12 08:27N 39°53' W 075°11'0 0.0
2017-Dec-12 07:55N 39°53' W 075°11'0 0.0
2017-Dec-12 07:30N 39°53' W 075°11'0 0.0
2017-Dec-12 07:00N 39°53' W 075°11'0 0.0
2017-Dec-12 06:30N 39°53' W 075°11'0 0.0
2017-Dec-12 05:59N 39°53' W 075°11'0 0.0
2017-Dec-12 05:30N 39°53' W 075°11'0 0.0
2017-Dec-12 04:57N 39°53' W 075°11'0 0.0
2017-Dec-12 04:27N 39°53' W 075°11'0 0.0
2017-Dec-12 04:00N 39°53' W 075°11'0 0.0
2017-Dec-12 03:30N 39°53' W 075°11'0 0.0
2017-Dec-12 03:00N 39°53' W 075°11'0 0.0
2017-Dec-12 02:30N 39°53' W 075°11'0 0.0
2017-Dec-12 02:01N 39°53' W 075°11'0 0.0
2017-Dec-12 01:31N 39°53' W 075°11'0 0.0
2017-Dec-12 01:00N 39°53' W 075°11'0 0.0
2017-Dec-12 00:30N 39°53' W 075°11'0 0.0
2017-Dec-12 00:00N 39°53' W 075°11'0 0.0
2017-Dec-11 23:30N 39°53' W 075°11'0 0.0
2017-Dec-11 23:00N 39°53' W 075°11'0 0.0
2017-Dec-11 22:30N 39°53' W 075°11'0 0.0
2017-Dec-11 22:00N 39°53' W 075°11'0 0.0
2017-Dec-11 21:30N 39°53' W 075°11'0 0.0
2017-Dec-11 21:00N 39°53' W 075°11'0 0.0
2017-Dec-11 20:30N 39°53' W 075°11'0 0.0
2017-Dec-11 20:00N 39°53' W 075°11'0 0.0
2017-Dec-11 19:30N 39°53' W 075°11'0 0.0
2017-Dec-11 19:00N 39°53' W 075°11'0 0.0
2017-Dec-11 18:31N 39°53' W 075°11'1 1.6
2017-Dec-11 18:00N 39°54' W 075°12'0 0.2
2017-Dec-11 17:30N 39°53' W 075°12'0 0.0
2017-Dec-11 17:00N 39°53' W 075°12'0 0.0
2017-Dec-11 16:30N 39°53' W 075°12'0 0.0
2017-Dec-11 16:00N 39°53' W 075°12'1 1.9
2017-Dec-11 15:30N 39°53' W 075°11'0 0.3
2017-Dec-11 15:00N 39°53' W 075°10'0 0.6
2017-Dec-11 14:30N 39°53' W 075°11'0 0.0
2017-Dec-11 14:00N 39°53' W 075°11'0 0.0
2017-Dec-11 13:31N 39°53' W 075°11'0 0.0
2017-Dec-11 13:00N 39°53' W 075°11'0 0.0
2017-Dec-11 12:30N 39°53' W 075°11'0 0.0
2017-Dec-11 12:00N 39°53' W 075°11'2 4.3
2017-Dec-11 11:30N 39°54' W 075°08'1 1.2
2017-Dec-11 11:00N 39°53' W 075°08'0 0.4
2017-Dec-11 10:30N 39°54' W 075°08'2 3.9
2017-Dec-11 10:00N 39°53' W 075°11'0 0.0
2017-Dec-11 09:30N 39°53' W 075°11'0 0.0
2017-Dec-11 09:00N 39°53' W 075°11'0 0.0
2017-Dec-11 08:30N 39°53' W 075°11'0 0.0
2017-Dec-11 08:01N 39°53' W 075°11'0 0.0
2017-Dec-11 07:30N 39°53' W 075°11'0 0.0
2017-Dec-11 07:00N 39°53' W 075°11'0 0.0
2017-Dec-11 06:30N 39°53' W 075°11'0 0.0
2017-Dec-11 06:00N 39°53' W 075°11'0 0.0
2017-Dec-11 05:30N 39°53' W 075°11'0 0.0
2017-Dec-11 05:01N 39°53' W 075°11'0 0.0
2017-Dec-11 04:30N 39°53' W 075°11'0 0.0
2017-Dec-11 04:00N 39°53' W 075°11'0 0.0
2017-Dec-11 03:30N 39°53' W 075°11'0 0.0
2017-Dec-11 03:00N 39°53' W 075°11'0 0.0
2017-Dec-11 02:30N 39°53' W 075°11'0 0.0
2017-Dec-11 02:00N 39°53' W 075°11'0 0.0
2017-Dec-11 01:30N 39°53' W 075°11'0 0.0
2017-Dec-11 01:00N 39°53' W 075°11'0 0.0
2017-Dec-11 00:30N 39°53' W 075°11'0 0.0
2017-Dec-11 00:00N 39°53' W 075°11'0 0.0
2017-Dec-10 23:30N 39°53' W 075°11'0 0.0
2017-Dec-10 23:00N 39°53' W 075°11'0 0.0
2017-Dec-10 22:30N 39°53' W 075°11'0 0.0
2017-Dec-10 22:00N 39°53' W 075°11'0 0.0
2017-Dec-10 21:30N 39°53' W 075°11'0 0.0
2017-Dec-10 21:01N 39°53' W 075°11'0 0.0
2017-Dec-10 20:30N 39°53' W 075°11'0 0.0
2017-Dec-10 20:00N 39°53' W 075°11'0 0.0
2017-Dec-10 19:30N 39°53' W 075°11'0 0.0
2017-Dec-10 19:00N 39°53' W 075°11'0 0.0
2017-Dec-10 18:30N 39°53' W 075°11'2 3.1
2017-Dec-10 18:00N 39°53' W 075°09'2 4.1
2017-Dec-10 17:30N 39°55' W 075°08'0 0.1
2017-Dec-10 17:00N 39°55' W 075°08'2 4.2
2017-Dec-10 16:30N 39°53' W 075°09'1 1.3
2017-Dec-10 16:00N 39°53' W 075°09'0 0.4
2017-Dec-10 15:30N 39°53' W 075°09'1 1.9
2017-Dec-10 15:01N 39°53' W 075°11'0 0.4
2017-Dec-10 14:30N 39°53' W 075°11'0 0.0
2017-Dec-10 14:00N 39°53' W 075°11'0 0.0
2017-Dec-10 13:30N 39°53' W 075°11'0 0.0
2017-Dec-10 13:00N 39°53' W 075°11'0 0.0
2017-Dec-10 12:30N 39°53' W 075°11'0 0.0
2017-Dec-10 12:00N 39°53' W 075°11'0 0.0
2017-Dec-10 11:30N 39°53' W 075°11'0 0.0
2017-Dec-10 11:00N 39°53' W 075°11'0 0.0
2017-Dec-10 10:30N 39°53' W 075°11'0 0.0
2017-Dec-10 10:00N 39°53' W 075°11'0 0.0
2017-Dec-10 09:30N 39°53' W 075°11'0 0.0
2017-Dec-10 09:00N 39°53' W 075°11'0 0.0
2017-Dec-10 08:30N 39°53' W 075°11'0 0.0
2017-Dec-10 08:00N 39°53' W 075°11'0 0.0
2017-Dec-10 07:30N 39°53' W 075°11'0 0.0
2017-Dec-10 07:01N 39°53' W 075°11'0 0.0
2017-Dec-10 06:30N 39°53' W 075°11'0 0.0
2017-Dec-10 06:01N 39°53' W 075°11'0 0.0
2017-Dec-10 05:31N 39°53' W 075°11'0 0.0
2017-Dec-10 05:01N 39°53' W 075°11'0 0.0
2017-Dec-10 04:31N 39°53' W 075°11'0 0.0
2017-Dec-10 04:00N 39°53' W 075°11'0 0.0
2017-Dec-10 03:30N 39°53' W 075°11'0 0.0
2017-Dec-10 03:00N 39°53' W 075°11'0 0.0
2017-Dec-10 02:30N 39°53' W 075°11'0 0.0
2017-Dec-10 02:01N 39°53' W 075°11'0 0.0
2017-Dec-10 01:31N 39°53' W 075°11'0 0.0
2017-Dec-10 01:00N 39°53' W 075°11'0 0.0
2017-Dec-10 00:30N 39°53' W 075°11'0 0.0
2017-Dec-10 00:00N 39°53' W 075°11'1 1.9
2017-Dec-09 23:30N 39°53' W 075°09'4 7.9
2017-Dec-09 23:01N 39°57' W 075°08'1 1.2
2017-Dec-09 22:30N 39°56' W 075°08'0 0.0
2017-Dec-09 22:00N 39°56' W 075°08'2 4.0
2017-Dec-09 21:30N 39°54' W 075°08'2 4.7
2017-Dec-09 21:00N 39°53' W 075°11'0 0.0
2017-Dec-09 20:31N 39°53' W 075°11'0 0.0
2017-Dec-09 20:00N 39°53' W 075°11'0 0.0
2017-Dec-09 19:30N 39°53' W 075°11'0 0.0
2017-Dec-09 19:00N 39°53' W 075°11'0 0.0
2017-Dec-09 18:31N 39°53' W 075°11'0 0.0
2017-Dec-09 18:01N 39°53' W 075°11'0 0.0
2017-Dec-09 17:31N 39°53' W 075°11'0 0.0
2017-Dec-09 17:00N 39°53' W 075°11'0 0.0
2017-Dec-09 16:31N 39°53' W 075°11'0 0.0
2017-Dec-09 16:01N 39°53' W 075°11'0 0.0
2017-Dec-09 15:30N 39°53' W 075°11'0 0.0
2017-Dec-09 15:01N 39°53' W 075°11'0 0.0
2017-Dec-09 14:31N 39°53' W 075°11'0 0.0
2017-Dec-09 14:00N 39°53' W 075°11'0 0.0
2017-Dec-09 13:31N 39°53' W 075°11'0 0.0
2017-Dec-09 13:01N 39°53' W 075°11'0 0.0
2017-Dec-09 12:30N 39°53' W 075°11'0 0.0
2017-Dec-09 12:01N 39°53' W 075°11'0 0.0
2017-Dec-09 11:30N 39°53' W 075°11'0 0.0
2017-Dec-09 11:00N 39°53' W 075°11'0 0.0
2017-Dec-09 10:30N 39°53' W 075°11'0 0.0
2017-Dec-09 10:00N 39°53' W 075°11'0 0.0
2017-Dec-09 09:31N 39°53' W 075°11'0 0.7
2017-Dec-09 09:00N 39°53' W 075°10'3 5.6
2017-Dec-09 08:30N 39°55' W 075°08'3 6.4
2017-Dec-09 08:00N 39°58' W 075°06'0 0.4
2017-Dec-09 07:30N 39°58' W 075°07'0 0.0
2017-Dec-09 07:00N 39°58' W 075°07'0 0.2
2017-Dec-09 06:30N 39°58' W 075°07'1 2.9
2017-Dec-09 06:01N 39°57' W 075°08'3 6.7
2017-Dec-09 05:31N 39°54' W 075°08'0 0.0
2017-Dec-09 05:00N 39°54' W 075°08'0 0.0
2017-Dec-09 04:31N 39°54' W 075°08'0 0.0
2017-Dec-09 04:00N 39°54' W 075°08'0 0.0
2017-Dec-09 03:31N 39°54' W 075°08'0 0.0
2017-Dec-09 03:00N 39°54' W 075°08'0 0.0
2017-Dec-09 02:30N 39°54' W 075°08'0 0.0
2017-Dec-09 02:01N 39°54' W 075°08'0 0.0
2017-Dec-09 01:30N 39°54' W 075°08'0 0.0
2017-Dec-09 01:00N 39°54' W 075°08'1 1.1
2017-Dec-09 00:30N 39°54' W 075°08'0 0.1
2017-Dec-09 00:00N 39°54' W 075°08'0 0.2
2017-Dec-08 23:30N 39°54' W 075°08'3 5.0
2017-Dec-08 23:00N 39°53' W 075°11'0 0.1
2017-Dec-08 22:30N 39°53' W 075°11'0 0.0
2017-Dec-08 22:00N 39°53' W 075°11'0 0.0
2017-Dec-08 21:30N 39°53' W 075°11'0 0.0
2017-Dec-08 21:00N 39°53' W 075°11'0 0.0
2017-Dec-08 20:30N 39°53' W 075°11'0 0.0
2017-Dec-08 20:00N 39°53' W 075°11'0 0.0
2017-Dec-08 19:30N 39°53' W 075°11'0 0.0
2017-Dec-08 19:00N 39°53' W 075°11'2 4.1
2017-Dec-08 18:31N 39°52' W 075°13'0 0.0
2017-Dec-08 18:00N 39°52' W 075°13'2 4.1
2017-Dec-08 17:30N 39°53' W 075°11'0 0.0
2017-Dec-08 17:00N 39°53' W 075°11'0 0.0
2017-Dec-08 16:30N 39°53' W 075°11'0 0.0
2017-Dec-08 16:00N 39°53' W 075°11'0 0.0
2017-Dec-08 15:30N 39°53' W 075°11'0 0.0
2017-Dec-08 15:00N 39°53' W 075°11'0 0.0
2017-Dec-08 14:30N 39°53' W 075°11'0 0.0
2017-Dec-08 14:00N 39°53' W 075°11'0 0.0
2017-Dec-08 13:31N 39°53' W 075°11'0 0.0
2017-Dec-08 13:00N 39°53' W 075°11'0 0.0
2017-Dec-08 12:31N 39°53' W 075°11'0 0.0
2017-Dec-08 12:00N 39°53' W 075°11'0 0.0
2017-Dec-08 11:30N 39°53' W 075°11'0 0.0
2017-Dec-08 11:00N 39°53' W 075°11'0 0.0
2017-Dec-08 10:31N 39°53' W 075°11'0 0.0
2017-Dec-08 10:00N 39°53' W 075°11'0 0.2
2017-Dec-08 09:30N 39°53' W 075°11'2 3.8
2017-Dec-08 09:00N 39°54' W 075°08'1 1.1
2017-Dec-08 08:31N 39°54' W 075°08'0 0.0
2017-Dec-08 08:01N 39°54' W 075°08'2 4.5
2017-Dec-08 07:31N 39°53' W 075°11'0 0.0
2017-Dec-08 07:01N 39°53' W 075°11'0 0.0
2017-Dec-08 06:30N 39°53' W 075°11'0 0.0
2017-Dec-08 06:00N 39°53' W 075°11'0 0.0
2017-Dec-08 05:31N 39°53' W 075°11'0 0.0
2017-Dec-08 05:00N 39°53' W 075°11'0 0.0
2017-Dec-08 04:31N 39°53' W 075°11'0 0.0
2017-Dec-08 04:01N 39°53' W 075°11'0 0.0
2017-Dec-08 03:31N 39°53' W 075°11'0 0.0
2017-Dec-08 03:01N 39°53' W 075°11'0 0.0
2017-Dec-08 02:30N 39°53' W 075°11'0 0.0
2017-Dec-08 02:00N 39°53' W 075°11'0 0.0
2017-Dec-08 01:30N 39°53' W 075°11'0 0.0
2017-Dec-08 01:01N 39°53' W 075°11'0 0.0
2017-Dec-08 00:30N 39°53' W 075°11'0 0.0
2017-Dec-08 00:00N 39°53' W 075°11'2 3.9
2017-Dec-07 23:30N 39°54' W 075°08'0 0.8
2017-Dec-07 23:00N 39°54' W 075°08'2 3.0
2017-Dec-07 22:30N 39°53' W 075°09'2 3.6
2017-Dec-07 22:00N 39°54' W 075°08'3 5.1
2017-Dec-07 21:30N 39°53' W 075°11'0 0.0
2017-Dec-07 21:00N 39°53' W 075°11'0 0.0
2017-Dec-07 20:30N 39°53' W 075°11'0 0.0
2017-Dec-07 20:00N 39°53' W 075°11'0 0.0
2017-Dec-07 19:30N 39°53' W 075°11'0 0.0
2017-Dec-07 19:00N 39°53' W 075°11'0 0.0
2017-Dec-07 18:31N 39°53' W 075°11'0 0.0
2017-Dec-07 18:01N 39°53' W 075°11'0 0.0
2017-Dec-07 17:30N 39°53' W 075°11'0 0.0
2017-Dec-07 17:00N 39°53' W 075°11'0 0.0
2017-Dec-07 16:31N 39°53' W 075°11'0 0.0
2017-Dec-07 16:01N 39°53' W 075°11'2 3.7
2017-Dec-07 15:31N 39°52' W 075°13'0 0.4
2017-Dec-07 15:00N 39°52' W 075°13'0 0.0
2017-Dec-07 14:30N 39°52' W 075°13'0 0.3
2017-Dec-07 14:00N 39°52' W 075°13'2 4.1
2017-Dec-07 13:29N 39°53' W 075°11'0 0.0
2017-Dec-07 13:00N 39°53' W 075°11'0 0.0
2017-Dec-07 12:30N 39°53' W 075°11'0 0.0
2017-Dec-07 12:00N 39°53' W 075°11'0 0.0
2017-Dec-07 11:30N 39°53' W 075°11'0 0.0
2017-Dec-07 10:59N 39°53' W 075°11'0 0.0
2017-Dec-07 10:31N 39°53' W 075°11'0 0.0
2017-Dec-07 10:00N 39°53' W 075°11'0 0.0
2017-Dec-07 09:30N 39°53' W 075°11'0 0.0
2017-Dec-07 09:00N 39°53' W 075°11'0 0.0
2017-Dec-07 08:30N 39°53' W 075°11'0 0.0
2017-Dec-07 08:00N 39°53' W 075°11'0 0.0
2017-Dec-07 07:30N 39°53' W 075°11'0 0.0
2017-Dec-07 07:00N 39°53' W 075°11'0 0.0
2017-Dec-07 06:30N 39°53' W 075°11'1 2.8
2017-Dec-07 06:00N 39°53' W 075°09'1 1.8
2017-Dec-07 05:30N 39°54' W 075°08'0 0.1
2017-Dec-07 04:59N 39°54' W 075°08'  

Dump ship's entire track history